sensor_id;sensor_type;location;lat;lon;timestamp;pressure;altitude;pressure_sealevel;temperature;humidity
74982;BME280;63532;50.766;18.944;2023-04-24T04:40:56;97633.47;;;5.71;66.21
74982;BME280;63532;50.766;18.944;2023-04-24T04:44:13;97634.16;;;5.81;66.32
74982;BME280;63532;50.766;18.944;2023-04-24T04:47:18;97631.53;;;5.89;65.93
74982;BME280;63532;50.766;18.944;2023-04-24T04:50:27;97634.38;;;5.96;65.67
74982;BME280;63532;50.766;18.944;2023-04-24T04:53:37;97639.06;;;6.10;66.06
74982;BME280;63532;50.766;18.944;2023-04-24T04:56:43;97640.91;;;6.34;66.21
74982;BME280;63532;50.766;18.944;2023-04-24T04:59:47;97641.25;;;6.63;65.43
74982;BME280;63532;50.766;18.944;2023-04-24T05:03:04;97630.53;;;6.96;65.55
74982;BME280;63532;50.766;18.944;2023-04-24T05:06:23;97624.75;;;7.31;65.13
74982;BME280;63532;50.766;18.944;2023-04-24T05:09:30;97622.28;;;7.61;64.72
74982;BME280;63532;50.766;18.944;2023-04-24T05:12:39;97615.75;;;7.94;64.86
74982;BME280;63532;50.766;18.944;2023-04-24T05:15:47;97620.03;;;8.26;64.57
74982;BME280;63532;50.766;18.944;2023-04-24T05:18:51;97615.53;;;8.49;63.58
74982;BME280;63532;50.766;18.944;2023-04-24T05:22:01;97611.47;;;8.76;63.03
74982;BME280;63532;50.766;18.944;2023-04-24T05:25:14;97615.56;;;9.02;62.89
74982;BME280;63532;50.766;18.944;2023-04-24T05:28:27;97606.44;;;9.25;64.63
74982;BME280;63532;50.766;18.944;2023-04-24T05:31:44;97604.91;;;9.67;62.69
74982;BME280;63532;50.766;18.944;2023-04-24T05:34:49;97607.09;;;10.14;63.46
74982;BME280;63532;50.766;18.944;2023-04-24T05:37:54;97605.44;;;10.56;62.15
74982;BME280;63532;50.766;18.944;2023-04-24T05:41:09;97600.47;;;11.09;61.75
74982;BME280;63532;50.766;18.944;2023-04-24T05:44:14;97595.34;;;11.55;62.18
74982;BME280;63532;50.766;18.944;2023-04-24T05:47:19;97589.13;;;12.02;61.93
74982;BME280;63532;50.766;18.944;2023-04-24T05:50:26;97592.97;;;12.54;60.63
74982;BME280;63532;50.766;18.944;2023-04-24T05:53:30;97589.41;;;12.99;60.41
74982;BME280;63532;50.766;18.944;2023-04-24T05:56:35;97593.53;;;13.35;59.86
74982;BME280;63532;50.766;18.944;2023-04-24T05:59:43;97583.44;;;13.68;59.51
74982;BME280;63532;50.766;18.944;2023-04-24T06:02:49;97593.19;;;14.14;59.10
74982;BME280;63532;50.766;18.944;2023-04-24T06:05:56;97585.03;;;14.59;58.24
74982;BME280;63532;50.766;18.944;2023-04-24T06:09:00;97581.25;;;14.91;56.57
74982;BME280;63532;50.766;18.944;2023-04-24T06:12:06;97587.75;;;15.27;56.20
74982;BME280;63532;50.766;18.944;2023-04-24T06:15:29;97578.94;;;15.56;55.72
74982;BME280;63532;50.766;18.944;2023-04-24T06:18:47;97575.38;;;15.92;54.85
74982;BME280;63532;50.766;18.944;2023-04-24T06:21:54;97578.03;;;16.10;53.88
74982;BME280;63532;50.766;18.944;2023-04-24T06:24:59;97569.63;;;16.30;53.12
74982;BME280;63532;50.766;18.944;2023-04-24T06:28:04;97571.94;;;16.45;52.22
74982;BME280;63532;50.766;18.944;2023-04-24T06:31:10;97564.41;;;16.59;52.05
74982;BME280;63532;50.766;18.944;2023-04-24T06:34:14;97569.88;;;16.70;48.93
74982;BME280;63532;50.766;18.944;2023-04-24T06:37:18;97561.41;;;16.78;49.64
74982;BME280;63532;50.766;18.944;2023-04-24T06:40:23;97561.41;;;16.90;46.73
74982;BME280;63532;50.766;18.944;2023-04-24T06:43:28;97559.06;;;16.94;45.19
74982;BME280;63532;50.766;18.944;2023-04-24T06:46:34;97557.88;;;17.01;49.04
74982;BME280;63532;50.766;18.944;2023-04-24T06:49:42;97557.63;;;17.14;45.22
74982;BME280;63532;50.766;18.944;2023-04-24T06:52:47;97557.41;;;17.28;47.46
74982;BME280;63532;50.766;18.944;2023-04-24T06:55:52;97556.41;;;17.57;46.47
74982;BME280;63532;50.766;18.944;2023-04-24T06:58:57;97560.16;;;17.79;48.25
74982;BME280;63532;50.766;18.944;2023-04-24T07:02:03;97552.47;;;17.88;46.83
74982;BME280;63532;50.766;18.944;2023-04-24T07:05:08;97559.25;;;18.02;47.23
74982;BME280;63532;50.766;18.944;2023-04-24T07:08:13;97557.97;;;18.05;44.76
74982;BME280;63532;50.766;18.944;2023-04-24T07:11:19;97555.13;;;18.28;45.31
74982;BME280;63532;50.766;18.944;2023-04-24T07:14:25;97559.19;;;18.42;42.90
74982;BME280;63532;50.766;18.944;2023-04-24T07:17:30;97552.19;;;18.46;41.34
74982;BME280;63532;50.766;18.944;2023-04-24T07:20:35;97548.84;;;18.56;43.88
74982;BME280;63532;50.766;18.944;2023-04-24T07:23:43;97550.38;;;18.80;44.74
74982;BME280;63532;50.766;18.944;2023-04-24T07:26:54;97543.81;;;19.15;45.79
74982;BME280;63532;50.766;18.944;2023-04-24T07:29:59;97537.41;;;19.43;45.25
74982;BME280;63532;50.766;18.944;2023-04-24T07:33:05;97537.00;;;19.51;44.94
74982;BME280;63532;50.766;18.944;2023-04-24T07:36:10;97546.25;;;19.33;40.71
74982;BME280;63532;50.766;18.944;2023-04-24T07:39:20;97547.00;;;19.29;43.74
74982;BME280;63532;50.766;18.944;2023-04-24T07:42:24;97533.63;;;19.44;44.79
74982;BME280;63532;50.766;18.944;2023-04-24T07:45:29;97546.97;;;19.62;41.82
74982;BME280;63532;50.766;18.944;2023-04-24T07:48:35;97536.06;;;19.62;42.72
74982;BME280;63532;50.766;18.944;2023-04-24T07:51:45;97534.28;;;19.51;43.13
74982;BME280;63532;50.766;18.944;2023-04-24T08:38:51;97511.19;;;20.88;42.19
74982;BME280;63532;50.766;18.944;2023-04-24T08:41:57;97502.06;;;21.09;41.73
74982;BME280;63532;50.766;18.944;2023-04-24T08:45:11;97488.66;;;21.08;41.11
74982;BME280;63532;50.766;18.944;2023-04-24T08:48:17;97501.19;;;20.99;40.88
74982;BME280;63532;50.766;18.944;2023-04-24T08:51:32;97492.44;;;21.02;37.70
74982;BME280;63532;50.766;18.944;2023-04-24T08:54:40;97497.19;;;21.16;39.11
74982;BME280;63532;50.766;18.944;2023-04-24T08:57:50;97497.53;;;21.25;38.73
74982;BME280;63532;50.766;18.944;2023-04-24T09:00:57;97490.00;;;21.42;40.34
74982;BME280;63532;50.766;18.944;2023-04-24T09:04:07;97484.88;;;21.66;37.87
74982;BME280;63532;50.766;18.944;2023-04-24T09:07:16;97486.28;;;21.74;36.09
74982;BME280;63532;50.766;18.944;2023-04-24T09:10:25;97492.56;;;21.74;39.03
